createdAt,value
2019-06-26T00:01:05.722Z,4.28
2019-06-26T00:03:38.623Z,4.47
2019-06-26T00:06:11.524Z,3.98
2019-06-26T00:08:45.095Z,4.42
2019-06-26T00:11:18.178Z,6.53
2019-06-26T00:13:51.360Z,6.42
2019-06-26T00:16:24.221Z,5.60
2019-06-26T00:18:56.714Z,4.97
2019-06-26T00:21:29.731Z,3.75
2019-06-26T00:24:02.406Z,4.37
2019-06-26T00:26:35.066Z,3.70
2019-06-26T00:29:07.966Z,4.05
2019-06-26T00:31:40.867Z,4.42
2019-06-26T00:34:13.581Z,4.45
2019-06-26T00:36:46.395Z,3.87
2019-06-26T00:39:18.894Z,3.98
2019-06-26T00:41:52.085Z,3.47
2019-06-26T00:44:25.173Z,4.00
2019-06-26T00:46:58.245Z,4.33
2019-06-26T00:49:31.075Z,3.77
2019-06-26T00:52:03.866Z,4.05
2019-06-26T00:54:36.454Z,3.42
2019-06-26T00:57:09.171Z,3.02
2019-06-26T00:59:42.413Z,3.10
2019-06-26T01:02:15.002Z,3.27
2019-06-26T01:04:49.267Z,2.65
2019-06-26T01:07:21.898Z,2.70
2019-06-26T01:09:54.622Z,3.10
2019-06-26T01:12:27.602Z,2.85
2019-06-26T01:15:00.277Z,2.55
2019-06-26T01:17:32.821Z,2.60
2019-06-26T01:20:06.829Z,2.70
2019-06-26T01:22:39.567Z,2.62
2019-06-26T01:25:12.888Z,2.75
2019-06-26T01:27:45.597Z,2.50
2019-06-26T01:30:19.539Z,2.25
2019-06-26T01:32:52.133Z,2.40
2019-06-26T01:35:25.042Z,2.30
2019-06-26T01:37:57.723Z,2.27
2019-06-26T01:40:30.589Z,2.27
2019-06-26T01:43:03.222Z,2.70
2019-06-26T01:45:35.960Z,2.40
2019-06-26T01:48:08.670Z,2.20
2019-06-26T01:50:41.506Z,2.42
2019-06-26T01:53:15.327Z,2.17
2019-06-26T01:55:47.921Z,2.30
2019-06-26T01:58:20.547Z,2.50
2019-06-26T02:00:53.292Z,2.20
2019-06-26T02:03:26.105Z,2.30
2019-06-26T02:05:58.635Z,2.50
2019-06-26T02:08:31.440Z,2.15
2019-06-26T02:11:04.194Z,2.02
2019-06-26T02:13:37.499Z,2.00
2019-06-26T02:16:10.444Z,2.67
2019-06-26T02:18:44.301Z,2.40
2019-06-26T02:21:17.798Z,2.30
2019-06-26T02:23:50.784Z,2.33
2019-06-26T02:26:23.639Z,2.20
2019-06-26T02:28:56.396Z,2.00
2019-06-26T02:31:29.349Z,2.47
2019-06-26T02:34:03.149Z,2.30
2019-06-26T02:36:35.948Z,2.15
2019-06-26T02:39:09.961Z,2.00
2019-06-26T02:41:42.509Z,2.47
2019-06-26T02:44:15.100Z,2.50
2019-06-26T02:46:48.223Z,2.40
2019-06-26T02:49:20.710Z,2.02
2019-06-26T02:52:12.424Z,2.30
2019-06-26T02:54:44.941Z,2.22
2019-06-26T02:57:18.314Z,2.30
2019-06-26T02:59:50.938Z,2.00
2019-06-26T03:02:23.632Z,2.30
2019-06-26T03:04:56.271Z,2.30
2019-06-26T03:07:29.311Z,2.17
2019-06-26T03:10:01.817Z,2.22
2019-06-26T03:12:34.543Z,2.85
2019-06-26T03:15:09.768Z,3.17
2019-06-26T03:17:54.948Z,2.27
2019-06-26T03:20:17.915Z,2.15
2019-06-26T03:22:50.725Z,2.33
2019-06-26T03:25:23.577Z,1.95
2019-06-26T03:27:56.518Z,2.20
2019-06-26T03:30:29.210Z,2.33
2019-06-26T03:33:12.857Z,2.20
2019-06-26T03:35:45.623Z,1.95
2019-06-26T03:38:18.362Z,1.92
2019-06-26T03:40:51.242Z,1.95
2019-06-26T03:43:24.084Z,2.02
2019-06-26T03:45:56.787Z,1.92
2019-06-26T03:48:29.641Z,2.00
2019-06-26T03:51:02.374Z,2.20
2019-06-26T03:53:34.916Z,1.72
2019-06-26T03:56:07.994Z,1.80
2019-06-26T03:58:40.841Z,2.35
2019-06-26T04:01:13.490Z,2.08
2019-06-26T04:03:46.372Z,1.92
2019-06-26T04:06:19.100Z,1.72
2019-06-26T04:08:52.000Z,1.52
2019-06-26T04:11:24.684Z,2.08
2019-06-26T04:13:57.803Z,1.65
2019-06-26T04:16:30.904Z,1.70
2019-06-26T04:19:03.632Z,1.30
2019-06-26T04:21:36.289Z,1.47
2019-06-26T04:24:08.894Z,1.47
2019-06-26T04:26:41.727Z,1.90
2019-06-26T04:29:14.702Z,1.75
2019-06-26T04:31:47.449Z,1.42
2019-06-26T04:34:20.363Z,1.52
2019-06-26T04:36:53.076Z,1.60
2019-06-26T04:39:25.696Z,1.90
2019-06-26T04:41:58.265Z,1.57
2019-06-26T04:44:31.268Z,2.30
2019-06-26T04:47:03.962Z,2.02
2019-06-26T04:49:36.573Z,1.70
2019-06-26T04:52:09.069Z,1.98
2019-06-26T04:54:41.601Z,1.90
2019-06-26T04:57:14.206Z,2.10
2019-06-26T04:59:48.185Z,2.42
2019-06-26T05:02:21.089Z,2.00
2019-06-26T05:04:53.842Z,2.30
2019-06-26T05:07:26.479Z,2.25
2019-06-26T05:09:59.247Z,2.08
2019-06-26T05:12:32.327Z,1.75
2019-06-26T05:15:06.231Z,2.10
2019-06-26T05:17:39.133Z,2.10
2019-06-26T05:32:23.779Z,1.70
2019-06-26T05:34:56.614Z,2.05
2019-06-26T05:37:29.209Z,1.90
2019-06-26T05:40:02.533Z,2.00
2019-06-26T05:42:35.148Z,1.77
2019-06-26T05:45:08.834Z,2.12
2019-06-26T05:47:41.568Z,1.90
2019-06-26T05:50:15.030Z,1.90
2019-06-26T05:52:47.599Z,1.65
2019-06-26T05:55:21.188Z,1.65
2019-06-26T05:57:54.003Z,1.65
2019-06-26T06:00:28.130Z,1.82
2019-06-26T06:03:00.626Z,1.77
2019-06-26T06:05:33.731Z,1.70
2019-06-26T06:08:07.634Z,1.32
2019-06-26T06:10:40.684Z,1.85
2019-06-26T06:13:13.565Z,1.52
2019-06-26T06:15:46.171Z,1.95
2019-06-26T06:18:19.189Z,1.90
2019-06-26T06:20:52.209Z,2.02
2019-06-26T06:23:25.153Z,2.02
2019-06-26T06:25:57.838Z,1.80
2019-06-26T06:28:30.450Z,2.12
2019-06-26T06:31:03.051Z,2.08
2019-06-26T06:33:35.568Z,2.20
2019-06-26T06:36:09.760Z,2.85
2019-06-26T06:38:42.201Z,2.47
2019-06-26T06:41:15.349Z,2.80
2019-06-26T06:43:48.082Z,2.25
2019-06-26T06:46:21.555Z,2.30
2019-06-26T06:48:54.134Z,2.33
2019-06-26T06:51:26.935Z,2.72
2019-06-26T06:54:00.443Z,2.60
2019-06-26T06:56:33.781Z,2.50
2019-06-26T06:59:06.822Z,2.40
2019-06-26T07:01:40.053Z,2.22
2019-06-26T07:04:12.741Z,2.75
2019-06-26T07:06:45.543Z,1.90
2019-06-26T07:09:18.255Z,2.00
2019-06-26T07:11:50.727Z,1.60
2019-06-26T07:14:23.461Z,1.82
2019-06-26T07:16:56.396Z,2.00
2019-06-26T07:19:29.079Z,2.00
2019-06-26T07:22:01.804Z,1.67
2019-06-26T07:24:34.275Z,2.20
2019-06-26T07:27:06.903Z,1.80
2019-06-26T07:29:40.173Z,1.90
2019-06-26T07:32:13.283Z,1.92
2019-06-26T07:34:46.082Z,1.62
2019-06-26T07:37:18.639Z,1.80
2019-06-26T07:39:51.464Z,2.15
2019-06-26T07:42:24.042Z,1.90
2019-06-26T07:44:56.584Z,2.20
2019-06-26T07:47:42.628Z,2.47
2019-06-26T07:50:03.331Z,2.08
2019-06-26T07:52:36.022Z,2.20
2019-06-26T07:55:12.054Z,2.08
2019-06-26T07:57:44.036Z,1.90
2019-06-26T08:00:18.403Z,2.00
2019-06-26T08:02:51.138Z,2.17
2019-06-26T08:05:24.151Z,1.80
2019-06-26T08:07:57.104Z,1.87
2019-06-26T08:10:30.808Z,2.02
2019-06-26T08:13:03.402Z,1.67
2019-06-26T08:15:36.186Z,2.67
2019-06-26T08:18:08.898Z,2.08
2019-06-26T08:20:55.454Z,2.12
2019-06-26T08:23:15.852Z,1.90
2019-06-26T08:25:48.477Z,2.10
2019-06-26T08:28:22.181Z,1.82
2019-06-26T08:30:54.820Z,1.92
2019-06-26T08:33:28.771Z,2.12
2019-06-26T08:36:02.392Z,1.62
2019-06-26T08:38:36.441Z,1.80
2019-06-26T08:41:09.237Z,2.02
2019-06-26T08:43:41.897Z,2.00
2019-06-26T08:46:14.378Z,2.20
2019-06-26T08:48:51.709Z,2.60
2019-06-26T08:51:22.750Z,2.20
2019-06-26T08:53:55.476Z,2.58
2019-06-26T08:56:28.082Z,1.90
2019-06-26T08:59:00.643Z,1.87
2019-06-26T09:01:33.108Z,1.67
2019-06-26T09:04:05.771Z,1.70
2019-06-26T09:06:38.471Z,2.00
2019-06-26T09:09:11.127Z,2.05
2019-06-26T09:11:43.754Z,1.90
2019-06-26T09:14:16.558Z,2.12
2019-06-26T09:16:49.195Z,1.80
2019-06-26T09:19:22.145Z,1.90
2019-06-26T09:21:54.960Z,2.08
2019-06-26T09:24:27.587Z,2.17
2019-06-26T09:27:00.311Z,1.80
2019-06-26T09:29:32.958Z,2.05
2019-06-26T09:32:05.861Z,1.80
2019-06-26T09:34:38.424Z,2.05
2019-06-26T09:37:10.948Z,2.22
2019-06-26T09:39:43.678Z,1.92
2019-06-26T09:42:19.493Z,1.80
2019-06-26T09:44:50.884Z,1.60
2019-06-26T09:47:23.652Z,2.20
2019-06-26T09:49:56.361Z,1.80
2019-06-26T09:52:29.301Z,1.85
2019-06-26T09:55:02.139Z,1.80
2019-06-26T09:57:34.946Z,2.20
2019-06-26T10:00:09.379Z,2.25
2019-06-26T10:02:42.279Z,2.15
2019-06-26T10:05:15.662Z,2.40
2019-06-26T10:07:48.544Z,3.30
2019-06-26T10:10:21.519Z,3.20
2019-06-26T10:12:54.353Z,2.47
2019-06-26T10:15:27.005Z,3.52
2019-06-26T10:17:59.968Z,2.50
2019-06-26T10:20:33.773Z,2.55
2019-06-26T10:23:06.988Z,2.58
2019-06-26T10:25:39.773Z,2.42
2019-06-26T10:28:13.149Z,2.25
2019-06-26T10:30:45.828Z,2.58
2019-06-26T10:33:18.937Z,1.77
2019-06-26T10:35:51.605Z,2.20
2019-06-26T10:38:24.727Z,2.30
2019-06-26T10:40:57.329Z,2.27
2019-06-26T10:43:32.027Z,2.72
2019-06-26T10:46:04.929Z,2.50
2019-06-26T10:48:37.466Z,2.58
2019-06-26T10:51:11.108Z,2.60
2019-06-26T10:53:43.938Z,2.85
2019-06-26T10:56:16.704Z,2.58
2019-06-26T10:58:49.619Z,2.80
2019-06-26T11:01:22.422Z,2.55
2019-06-26T11:03:55.594Z,2.87
2019-06-26T11:06:28.614Z,3.37
2019-06-26T11:09:01.305Z,2.95
2019-06-26T11:11:35.190Z,2.70
2019-06-26T11:14:08.297Z,2.40
2019-06-26T11:16:40.983Z,2.40
2019-06-26T11:19:13.470Z,2.80
2019-06-26T11:21:46.103Z,3.17
2019-06-26T11:24:18.700Z,2.30
2019-06-26T11:26:51.387Z,3.02
2019-06-26T11:29:24.287Z,3.33
2019-06-26T11:31:57.114Z,3.05
2019-06-26T11:34:30.010Z,2.92
2019-06-26T11:37:04.327Z,3.00
2019-06-26T11:39:36.618Z,2.70
2019-06-26T11:42:09.481Z,3.00
2019-06-26T11:44:42.190Z,4.25
2019-06-26T11:47:14.808Z,4.60
2019-06-26T11:49:59.301Z,4.33
2019-06-26T11:52:21.929Z,4.20
2019-06-26T11:55:02.443Z,3.98
2019-06-26T11:57:28.767Z,5.00
2019-06-26T12:00:01.966Z,5.97
2019-06-26T12:02:34.961Z,3.95
2019-06-26T12:05:09.436Z,4.58
2019-06-26T12:07:42.142Z,3.95
2019-06-26T12:10:15.785Z,3.70
2019-06-26T12:12:49.421Z,3.95
2019-06-26T12:15:23.830Z,3.30
2019-06-26T12:17:56.392Z,3.20
2019-06-26T12:20:29.595Z,3.22
2019-06-26T12:23:02.179Z,3.80
2019-06-26T12:25:34.972Z,3.50
2019-06-26T12:28:08.130Z,3.77
2019-06-26T12:30:41.167Z,3.52
2019-06-26T12:33:14.292Z,3.52
2019-06-26T12:35:47.074Z,3.87
2019-06-26T12:38:19.659Z,3.30
2019-06-26T12:40:52.475Z,3.77
2019-06-26T12:43:25.186Z,4.40
2019-06-26T12:45:57.823Z,4.08
2019-06-26T12:48:31.019Z,4.05
2019-06-26T12:51:03.799Z,3.92
2019-06-26T12:53:36.506Z,3.90
2019-06-26T12:56:09.392Z,3.50
2019-06-26T12:58:42.146Z,3.70
2019-06-26T13:01:15.000Z,3.42
2019-06-26T13:03:47.560Z,3.10
2019-06-26T13:06:20.204Z,3.58
2019-06-26T13:08:52.790Z,3.37
2019-06-26T13:11:25.961Z,3.75
2019-06-26T13:14:02.961Z,4.00
2019-06-26T13:16:33.108Z,3.33
2019-06-26T13:19:06.492Z,3.30
2019-06-26T13:21:39.413Z,3.40
2019-06-26T13:24:12.051Z,3.25
2019-06-26T13:26:44.746Z,3.85
2019-06-26T13:29:17.516Z,3.17
2019-06-26T13:31:50.229Z,3.20
2019-06-26T13:34:22.918Z,3.47
2019-06-26T13:36:55.382Z,3.15
2019-06-26T13:39:27.927Z,3.83
2019-06-26T13:42:00.562Z,3.30
2019-06-26T13:44:34.264Z,3.12
2019-06-26T13:47:06.794Z,3.35
2019-06-26T13:49:39.787Z,3.35
2019-06-26T13:52:12.581Z,3.65
2019-06-26T13:54:45.533Z,3.60
2019-06-26T13:57:18.502Z,3.20
2019-06-26T13:59:51.176Z,3.12
2019-06-26T14:02:23.870Z,3.00
2019-06-26T14:04:56.660Z,2.95
2019-06-26T14:07:29.313Z,3.65
2019-06-26T14:10:01.940Z,3.33
2019-06-26T14:12:34.727Z,3.50
2019-06-26T14:15:09.549Z,3.62
2019-06-26T14:17:42.513Z,3.83
2019-06-26T14:20:15.702Z,3.35
2019-06-26T14:22:48.720Z,3.70
2019-06-26T14:25:21.720Z,3.35
2019-06-26T14:27:54.854Z,3.55
2019-06-26T14:30:28.146Z,3.58
2019-06-26T14:33:01.178Z,2.92
2019-06-26T14:35:33.862Z,3.17
2019-06-26T14:38:06.500Z,3.20
2019-06-26T14:40:39.142Z,3.33
2019-06-26T14:43:11.639Z,3.47
2019-06-26T14:45:44.397Z,3.47
2019-06-26T14:48:16.998Z,3.83
2019-06-26T14:50:49.546Z,3.98
2019-06-26T14:53:22.100Z,4.12
2019-06-26T14:55:55.035Z,4.35
2019-06-26T14:58:27.652Z,4.95
2019-06-26T15:01:01.127Z,4.10
2019-06-26T15:03:33.826Z,4.67
2019-06-26T15:06:16.275Z,4.80
2019-06-26T15:08:40.794Z,4.92
2019-06-26T15:11:15.506Z,5.05
2019-06-26T15:13:47.415Z,4.95
2019-06-26T15:16:20.452Z,5.50
2019-06-26T15:18:53.264Z,5.65
2019-06-26T15:21:25.887Z,5.62
2019-06-26T15:23:58.417Z,5.60
2019-06-26T15:26:31.106Z,5.85
2019-06-26T15:29:03.777Z,6.00
2019-06-26T15:31:36.451Z,5.85
2019-06-26T15:34:09.134Z,5.85
2019-06-26T15:36:41.757Z,5.90
2019-06-26T15:39:14.766Z,6.55
2019-06-26T15:41:47.792Z,6.40
2019-06-26T15:44:20.599Z,7.28
2019-06-26T15:46:53.471Z,5.80
2019-06-26T15:49:26.179Z,5.70
2019-06-26T15:52:14.079Z,6.22
2019-06-26T15:54:33.076Z,5.65
2019-06-26T15:57:05.861Z,5.90
2019-06-26T15:59:38.773Z,5.95
2019-06-26T16:02:11.385Z,5.60
2019-06-26T16:04:44.370Z,5.70
2019-06-26T16:07:17.051Z,5.25
2019-06-26T16:09:49.649Z,5.60
2019-06-26T16:12:22.498Z,5.40
2019-06-26T16:14:55.189Z,6.12
2019-06-26T16:17:29.715Z,5.28
2019-06-26T16:20:02.522Z,5.75
2019-06-26T16:22:36.302Z,5.00
2019-06-26T16:25:09.298Z,5.42
2019-06-26T16:27:42.071Z,5.33
2019-06-26T16:30:15.960Z,4.92
2019-06-26T16:32:48.891Z,5.37
2019-06-26T16:35:21.690Z,4.37
2019-06-26T16:37:54.530Z,4.72
2019-06-26T16:40:27.545Z,4.20
2019-06-26T16:43:00.060Z,4.20
2019-06-26T16:45:32.666Z,4.12
2019-06-26T16:48:05.394Z,4.00
2019-06-26T16:50:38.196Z,3.87
2019-06-26T16:53:10.824Z,3.50
2019-06-26T16:55:43.429Z,3.27
2019-06-26T16:58:16.213Z,3.10
2019-06-26T17:00:49.019Z,3.00
2019-06-26T17:03:21.670Z,3.10
2019-06-26T17:05:54.182Z,3.22
2019-06-26T17:08:26.678Z,2.75
2019-06-26T17:10:59.296Z,2.45
2019-06-26T17:13:31.792Z,2.20
2019-06-26T17:16:05.611Z,2.00
2019-06-26T17:18:38.160Z,1.60
2019-06-26T17:21:10.891Z,1.45
2019-06-26T17:23:43.477Z,1.37
2019-06-26T17:26:16.228Z,1.27
2019-06-26T17:28:48.809Z,1.40
2019-06-26T17:31:21.424Z,1.45
2019-06-26T17:33:54.206Z,1.60
2019-06-26T17:36:28.856Z,1.45
2019-06-26T17:39:01.010Z,1.40
2019-06-26T17:41:35.204Z,1.62
2019-06-26T17:44:08.146Z,1.82
2019-06-26T17:46:40.932Z,1.10
2019-06-26T17:49:13.647Z,0.80
2019-06-26T17:51:46.247Z,0.80
2019-06-26T17:54:18.828Z,0.85
2019-06-26T17:56:51.427Z,0.78
2019-06-26T17:59:24.113Z,0.90
2019-06-26T18:01:57.729Z,0.80
2019-06-26T18:04:30.308Z,0.80
2019-06-26T18:07:03.018Z,0.70
2019-06-26T18:09:35.483Z,0.88
2019-06-26T18:12:08.266Z,1.00
2019-06-26T18:14:43.246Z,1.02
2019-06-26T18:17:22.085Z,0.95
2019-06-26T18:19:48.835Z,0.80
2019-06-26T18:22:21.627Z,1.00
2019-06-26T18:24:54.127Z,1.10
2019-06-26T18:27:26.648Z,0.82
2019-06-26T18:29:59.652Z,1.12
2019-06-26T18:32:32.242Z,1.17
2019-06-26T18:35:06.648Z,0.90
2019-06-26T18:37:39.334Z,1.00
2019-06-26T18:40:12.114Z,1.02
2019-06-26T18:42:44.834Z,1.10
2019-06-26T18:45:18.863Z,0.93
2019-06-26T18:47:51.426Z,0.85
2019-06-26T18:50:24.065Z,1.20
2019-06-26T18:52:56.693Z,0.98
2019-06-26T18:55:29.810Z,1.40
2019-06-26T18:58:02.770Z,1.22
2019-06-26T19:00:35.268Z,1.17
2019-06-26T19:03:08.072Z,1.27
2019-06-26T19:05:40.756Z,1.25
2019-06-26T19:08:13.444Z,1.25
2019-06-26T19:10:46.488Z,1.25
2019-06-26T19:13:20.483Z,0.72
2019-06-26T19:15:53.114Z,1.10
2019-06-26T19:18:26.011Z,1.00
2019-06-26T19:20:58.709Z,1.17
2019-06-26T19:23:31.316Z,1.45
2019-06-26T19:26:03.805Z,1.17
2019-06-26T19:28:36.824Z,0.95
2019-06-26T19:31:09.425Z,1.10
2019-06-26T19:33:44.807Z,1.17
2019-06-26T19:36:15.908Z,1.40
2019-06-26T19:38:48.447Z,1.45
2019-06-26T19:41:21.081Z,1.50
2019-06-26T19:43:53.794Z,1.70
2019-06-26T19:46:26.531Z,1.90
2019-06-26T19:48:59.118Z,1.70
2019-06-26T19:51:32.131Z,1.60
2019-06-26T19:54:04.966Z,1.55
2019-06-26T19:56:37.768Z,1.57
2019-06-26T19:59:10.438Z,1.60
2019-06-26T20:01:43.164Z,1.60
2019-06-26T20:04:16.655Z,1.70
2019-06-26T20:06:49.400Z,1.52
2019-06-26T20:09:22.221Z,2.08
2019-06-26T20:11:55.157Z,1.65
2019-06-26T20:14:27.865Z,1.60
2019-06-26T20:17:00.503Z,1.82
2019-06-26T20:19:33.304Z,1.40
2019-06-26T20:22:05.783Z,1.47
2019-06-26T20:24:44.034Z,1.50
2019-06-26T20:27:12.313Z,1.60
2019-06-26T20:29:45.040Z,1.50
2019-06-26T20:32:17.840Z,1.45
2019-06-26T20:34:50.659Z,1.52
2019-06-26T20:37:23.238Z,1.55
2019-06-26T20:39:56.072Z,1.55
2019-06-26T20:42:28.658Z,1.65
2019-06-26T20:45:01.644Z,2.20
2019-06-26T20:47:34.334Z,2.25
2019-06-26T20:50:08.613Z,2.00
2019-06-26T20:52:41.470Z,1.87
2019-06-26T20:55:14.358Z,1.82
2019-06-26T20:57:47.090Z,1.87
2019-06-26T21:00:22.613Z,2.05
2019-06-26T21:02:54.573Z,2.00
2019-06-26T21:05:28.960Z,2.10
2019-06-26T21:08:01.660Z,1.80
2019-06-26T21:10:34.605Z,2.17
2019-06-26T21:13:07.626Z,2.20
2019-06-26T21:15:40.212Z,2.17
2019-06-26T21:18:12.912Z,2.10
2019-06-26T21:20:45.629Z,2.27
2019-06-26T21:23:19.610Z,1.90
2019-06-26T21:25:53.178Z,2.20
2019-06-26T21:28:26.782Z,2.00
2019-06-26T21:30:59.180Z,2.10
2019-06-26T21:33:32.026Z,2.45
2019-06-26T21:36:04.863Z,2.15
2019-06-26T21:38:37.644Z,1.95
2019-06-26T21:41:10.333Z,2.02
2019-06-26T21:43:43.028Z,1.87
2019-06-26T21:46:15.882Z,2.40
2019-06-26T21:48:48.568Z,2.00
2019-06-26T21:51:21.062Z,2.20
2019-06-26T21:53:53.644Z,2.02
2019-06-26T21:56:27.489Z,2.33
2019-06-26T21:59:01.534Z,2.00
2019-06-26T22:01:35.592Z,1.98
2019-06-26T22:04:10.442Z,2.05
2019-06-26T22:06:44.392Z,2.00
2019-06-26T22:09:18.485Z,2.25
2019-06-26T22:11:52.182Z,2.05
2019-06-26T22:14:24.860Z,1.77
2019-06-26T22:16:57.466Z,1.80
2019-06-26T22:19:30.161Z,1.70
2019-06-26T22:22:02.818Z,1.98
2019-06-26T22:24:35.485Z,2.35
2019-06-26T22:27:08.431Z,1.95
2019-06-26T22:29:41.008Z,2.20
2019-06-26T22:32:13.651Z,1.80
2019-06-26T22:34:48.199Z,1.90
2019-06-26T22:37:20.819Z,1.75
2019-06-26T22:39:53.521Z,2.00
2019-06-26T22:42:26.187Z,1.90
2019-06-26T22:44:58.909Z,2.00
2019-06-26T22:47:31.611Z,2.20
2019-06-26T22:50:04.343Z,2.25
2019-06-26T22:52:37.513Z,2.70
2019-06-26T22:55:10.946Z,2.30
2019-06-26T22:57:43.774Z,2.50
2019-06-26T23:00:17.361Z,2.15
2019-06-26T23:02:49.965Z,2.65
2019-06-26T23:05:22.633Z,2.27
2019-06-26T23:07:55.756Z,2.58
2019-06-26T23:10:28.440Z,2.62
2019-06-26T23:13:02.142Z,2.72
2019-06-26T23:15:34.825Z,2.33
2019-06-26T23:18:07.522Z,2.50
2019-06-26T23:20:41.306Z,2.80
2019-06-26T23:23:14.198Z,2.77
2019-06-26T23:25:47.002Z,2.85
2019-06-26T23:28:19.889Z,3.17
2019-06-26T23:30:52.546Z,2.77
2019-06-26T23:33:25.281Z,3.08
2019-06-26T23:35:57.906Z,3.20
2019-06-26T23:38:30.594Z,3.47
2019-06-26T23:41:03.523Z,3.12
2019-06-26T23:43:36.215Z,3.70
2019-06-26T23:46:08.809Z,3.20
2019-06-26T23:48:44.735Z,3.50
2019-06-26T23:51:15.833Z,3.87
2019-06-26T23:53:49.856Z,4.10
2019-06-26T23:56:22.370Z,4.70
2019-06-26T23:58:55.157Z,5.75
